Disclaimer

Please do not use the information listed here in-flight or in-navigation, as they are not provided to us by the airports but are provided by volunteers, so they might be outdated.

Search


Regions


Airport information page

Radio informations:
Tower (TWR) - 124.6 MHz

Airport informations:
Latitude: 36° 39' 48.00" N
Longitude: 051° 27' 53.00" E
Elevation: -61 feet - -19 meters
Operating hours: Remarks
Operating agency: Civil government, landing fees and diplomatic clearance may be required
Timezone: UTC+3:30
Fuel: N/A

Runway information:
10/28 - 6182 x 115 feet< - >1884 x 35 meters

Recent METARs:
OINN 180600Z 21004KT 8000 -SHRA FEW020CB BKN025 15/14 Q1023
OINN 180700Z 33006KT 8000 FEW020CB BKN025 15/14 Q1023
OINN 180800Z 33004KT 7000 FEW020CB BKN025 16/15 Q1022

Airport on the map: